createdAt,value
2022-12-29T00:01:32.627Z,99337.27
2022-12-29T00:06:36.146Z,99327.39
2022-12-29T00:11:39.751Z,99324.10
2022-12-29T00:16:45.739Z,99325.41
2022-12-29T00:22:07.779Z,99334.99
2022-12-29T00:27:32.801Z,99326.94
2022-12-29T00:32:55.569Z,99324.54
2022-12-29T00:38:21.517Z,99320.00
2022-12-29T00:43:43.658Z,99315.54
2022-12-29T00:49:06.530Z,99313.59
2022-12-29T00:54:10.767Z,99311.31
2022-12-29T00:59:15.135Z,99308.64
2022-12-29T01:04:18.473Z,99308.96
2022-12-29T01:09:40.884Z,99308.16
2022-12-29T01:14:44.795Z,99298.98
2022-12-29T01:19:48.313Z,99295.45
2022-12-29T01:24:51.721Z,99292.45
2022-12-29T01:29:55.350Z,99283.27
2022-12-29T01:34:58.973Z,99277.44
2022-12-29T01:40:02.469Z,99273.46
2022-12-29T01:45:18.086Z,99263.52
2022-12-29T01:50:29.983Z,99260.58
2022-12-29T01:55:40.565Z,99254.41
2022-12-29T02:00:44.234Z,99249.95
2022-12-29T02:05:55.995Z,99244.32
2022-12-29T02:11:01.352Z,99247.84
2022-12-29T02:16:14.544Z,99247.17
2022-12-29T02:22:05.623Z,99249.95
2022-12-29T02:27:36.387Z,99248.55
2022-12-29T02:33:12.048Z,99245.92
2022-12-29T02:38:52.833Z,99241.29
2022-12-29T02:44:04.130Z,99234.52
2022-12-29T02:49:07.553Z,99218.26
2022-12-29T02:54:50.296Z,99219.68
2022-12-29T03:00:01.397Z,99231.98
2022-12-29T03:05:20.246Z,99232.74
2022-12-29T03:10:57.252Z,99221.77
2022-12-29T03:16:19.163Z,99234.14
2022-12-29T03:21:53.022Z,99232.45
2022-12-29T03:26:59.899Z,99217.71
2022-12-29T03:32:06.103Z,99217.34
2022-12-29T03:37:16.532Z,99224.70
2022-12-29T03:42:25.258Z,99217.89
2022-12-29T03:47:28.724Z,99201.40
2022-12-29T03:52:32.245Z,99183.95
2022-12-29T03:57:35.860Z,99177.45
2022-12-29T04:02:39.569Z,99192.89
2022-12-29T04:07:43.306Z,99196.03
2022-12-29T04:12:47.835Z,99186.42
2022-12-29T04:17:51.364Z,99189.70
2022-12-29T04:23:05.215Z,99174.36
2022-12-29T04:28:09.374Z,99166.01
2022-12-29T04:33:13.194Z,99156.75
2022-12-29T04:38:17.806Z,99151.20
2022-12-29T04:43:23.480Z,99156.63
2022-12-29T04:48:26.885Z,99161.23
2022-12-29T04:53:31.021Z,99165.06
2022-12-29T04:58:34.640Z,99164.75
2022-12-29T05:03:38.318Z,99160.52
2022-12-29T05:08:41.883Z,99155.02
2022-12-29T05:13:48.363Z,99153.02
2022-12-29T05:18:51.878Z,99150.67
2022-12-29T05:23:55.505Z,99145.17
2022-12-29T05:28:59.121Z,99139.07
2022-12-29T05:34:03.452Z,99132.91
2022-12-29T05:39:08.933Z,99118.80
2022-12-29T05:44:12.928Z,99112.00
2022-12-29T05:49:17.483Z,99113.61
2022-12-29T05:54:21.927Z,99119.97
2022-12-29T05:59:25.550Z,99117.71
2022-12-29T06:12:54.603Z,99106.16
2022-12-29T06:17:58.431Z,99095.74
2022-12-29T06:23:01.946Z,99110.14
2022-12-29T06:28:06.577Z,99094.70
2022-12-29T06:33:10.102Z,99082.84
2022-12-29T06:38:14.028Z,99075.18
2022-12-29T06:43:17.740Z,99065.30
2022-12-29T06:48:21.264Z,99061.67
2022-12-29T06:53:24.980Z,99072.00
2022-12-29T06:58:28.598Z,99066.41
2022-12-29T07:03:32.312Z,99066.48
2022-12-29T07:08:36.036Z,99074.09
2022-12-29T07:13:39.553Z,99077.77
2022-12-29T07:18:43.479Z,99076.61
2022-12-29T07:23:47.207Z,99075.30
2022-12-29T07:28:50.912Z,99077.52
2022-12-29T07:33:54.538Z,99082.33
2022-12-29T07:38:58.286Z,99083.98
2022-12-29T07:44:02.237Z,99077.05
2022-12-29T07:49:06.005Z,99064.57
2022-12-29T07:54:11.264Z,99072.61
2022-12-29T07:59:15.087Z,99086.75
2022-12-29T08:04:18.863Z,99096.63
2022-12-29T08:09:24.409Z,99104.84
2022-12-29T08:14:28.197Z,99102.55
2022-12-29T08:19:31.689Z,99102.21
2022-12-29T08:24:35.260Z,99093.04
2022-12-29T08:29:38.725Z,99086.78
2022-12-29T08:34:42.360Z,99094.87
2022-12-29T08:39:45.965Z,99095.79
2022-12-29T08:44:49.379Z,99095.75
2022-12-29T08:49:53.196Z,99091.08
2022-12-29T08:54:56.724Z,99097.34
2022-12-29T09:00:00.432Z,99095.20
2022-12-29T09:05:04.375Z,99094.16
2022-12-29T09:10:08.636Z,99098.09
2022-12-29T09:15:13.448Z,99080.58
2022-12-29T09:20:19.742Z,99078.87
2022-12-29T09:25:25.592Z,99073.21
2022-12-29T09:30:29.846Z,99082.56
2022-12-29T09:35:33.384Z,99085.73
2022-12-29T09:40:37.487Z,99088.34
2022-12-29T09:46:17.874Z,99084.25
2022-12-29T09:51:25.209Z,99064.58
2022-12-29T09:56:29.279Z,99051.64
2022-12-29T10:01:48.033Z,99048.64
2022-12-29T10:07:32.941Z,99046.75
2022-12-29T10:12:43.006Z,99050.77
2022-12-29T10:18:19.637Z,99055.62
2022-12-29T10:23:49.735Z,99043.48
2022-12-29T10:29:07.503Z,99032.11
2022-12-29T10:34:21.052Z,99027.04
2022-12-29T10:39:24.558Z,99017.61
2022-12-29T10:44:32.267Z,99008.96
2022-12-29T10:49:42.143Z,99017.20
2022-12-29T10:55:06.549Z,99013.68
2022-12-29T11:00:17.675Z,99004.04
2022-12-29T11:05:40.092Z,99004.98
2022-12-29T11:10:45.803Z,99001.55
2022-12-29T11:15:51.322Z,99015.91
2022-12-29T11:21:04.104Z,99015.69
2022-12-29T11:26:28.926Z,99017.85
2022-12-29T11:31:51.140Z,99015.34
2022-12-29T11:37:02.318Z,98997.06
2022-12-29T11:42:10.675Z,98991.57
2022-12-29T11:47:32.605Z,98994.35
2022-12-29T11:52:40.808Z,98997.02
2022-12-29T11:57:46.275Z,98999.02
2022-12-29T12:02:58.241Z,99000.94
2022-12-29T12:08:20.501Z,98998.63
2022-12-29T12:13:40.755Z,98994.90
2022-12-29T12:18:53.104Z,98991.64
2022-12-29T12:24:16.486Z,98979.92
2022-12-29T12:29:43.014Z,98962.67
2022-12-29T12:34:47.756Z,98958.09
2022-12-29T12:40:18.003Z,98967.53
2022-12-29T12:45:30.423Z,98970.77
2022-12-29T12:50:50.045Z,98971.95
2022-12-29T12:56:27.753Z,98978.14
2022-12-29T13:01:47.538Z,98974.04
2022-12-29T13:07:25.349Z,98976.27
2022-12-29T13:12:44.032Z,98982.73
2022-12-29T13:18:01.871Z,98989.69
2022-12-29T13:23:20.236Z,98990.15
2022-12-29T13:28:44.233Z,98990.34
2022-12-29T13:34:00.242Z,98980.52
2022-12-29T13:39:06.827Z,98975.70
2022-12-29T13:44:18.640Z,98978.12
2022-12-29T13:49:25.673Z,98981.51
2022-12-29T13:55:05.103Z,98982.22
2022-12-29T14:00:21.620Z,98983.56
2022-12-29T14:05:25.139Z,98980.27
2022-12-29T14:10:46.928Z,98971.98
2022-12-29T14:15:59.073Z,98972.15
2022-12-29T14:21:08.748Z,98983.55
2022-12-29T14:26:15.234Z,98983.52
2022-12-29T14:31:18.728Z,98982.36
2022-12-29T14:36:37.442Z,98984.33
2022-12-29T14:41:41.652Z,98992.50
2022-12-29T14:46:57.972Z,98989.15
2022-12-29T14:52:22.227Z,98987.13
2022-12-29T14:57:43.146Z,98987.48
2022-12-29T15:03:15.983Z,98988.45
2022-12-29T15:08:25.662Z,98992.19
2022-12-29T15:13:39.219Z,98993.20
2022-12-29T15:18:44.877Z,98991.20
2022-12-29T15:23:49.306Z,99000.20
2022-12-29T15:28:53.456Z,98990.38
2022-12-29T15:34:14.953Z,98987.27
2022-12-29T15:39:28.121Z,98996.63
2022-12-29T15:44:36.959Z,99000.88
2022-12-29T15:49:42.739Z,98992.98
2022-12-29T15:54:47.929Z,98989.33
2022-12-29T15:59:52.523Z,98984.02
2022-12-29T16:10:54.871Z,98990.30
2022-12-29T16:16:04.110Z,98999.46
2022-12-29T16:21:22.782Z,98995.23
2022-12-29T16:26:26.594Z,99000.59
2022-12-29T16:31:49.369Z,98998.92
2022-12-29T16:37:04.456Z,98993.92
2022-12-29T16:42:47.207Z,98999.45
2022-12-29T16:48:06.573Z,98995.19
2022-12-29T16:53:22.582Z,99005.75
2022-12-29T16:58:30.282Z,99005.52
2022-12-29T17:03:41.966Z,99010.31
2022-12-29T17:08:46.871Z,99014.14
2022-12-29T17:13:50.363Z,99018.54
2022-12-29T17:18:54.194Z,99015.67
2022-12-29T17:23:58.326Z,99016.65
2022-12-29T17:29:01.732Z,99007.75
2022-12-29T17:34:05.221Z,99005.89
2022-12-29T17:39:09.680Z,99005.29
2022-12-29T17:44:21.195Z,99013.33
2022-12-29T17:49:24.598Z,99002.70
2022-12-29T17:54:28.522Z,99013.09
2022-12-29T17:59:31.947Z,99012.50
2022-12-29T18:04:35.453Z,99007.40
2022-12-29T18:09:39.175Z,99011.26
2022-12-29T18:14:42.592Z,99021.94
2022-12-29T18:19:46.406Z,99038.73
2022-12-29T18:24:51.048Z,99037.67
2022-12-29T18:29:55.962Z,99043.81
2022-12-29T18:34:59.406Z,99049.35
2022-12-29T18:40:02.924Z,99054.95
2022-12-29T18:45:22.219Z,99066.75
2022-12-29T18:50:26.047Z,99066.35
2022-12-29T18:55:30.612Z,99066.50
2022-12-29T19:00:34.269Z,99066.98
2022-12-29T19:05:39.991Z,99074.18
2022-12-29T19:10:44.415Z,99079.55
2022-12-29T19:15:48.276Z,99073.80
2022-12-29T19:20:53.887Z,99056.26
2022-12-29T19:25:57.408Z,99060.97
2022-12-29T19:31:03.020Z,99065.84
2022-12-29T19:36:07.004Z,99070.62
2022-12-29T19:41:10.405Z,99069.12
2022-12-29T19:46:17.348Z,99073.98
2022-12-29T19:51:21.067Z,99069.19
2022-12-29T19:56:25.054Z,99072.24
2022-12-29T20:01:29.209Z,99077.61
2022-12-29T20:06:32.804Z,99079.37
2022-12-29T20:11:37.264Z,99086.09
2022-12-29T20:17:02.351Z,99087.27
2022-12-29T20:22:07.177Z,99084.50
2022-12-29T20:27:19.632Z,99092.88
2022-12-29T20:33:28.480Z,99099.01
2022-12-29T20:38:32.195Z,99100.56
2022-12-29T20:43:36.125Z,99100.17
2022-12-29T20:48:39.534Z,99087.42
2022-12-29T20:53:43.497Z,99086.36
2022-12-29T20:59:25.337Z,99081.49
2022-12-29T21:04:11.503Z,99082.90
2022-12-29T21:09:15.207Z,99085.89
2022-12-29T21:14:18.728Z,99086.11
2022-12-29T21:19:22.232Z,99096.41
2022-12-29T21:24:26.159Z,99095.41
2022-12-29T21:29:29.576Z,99101.49
2022-12-29T21:34:34.805Z,99102.27
2022-12-29T21:39:38.344Z,99105.36
2022-12-29T21:45:00.697Z,99099.08
2022-12-29T21:50:04.626Z,99105.88
2022-12-29T21:55:09.239Z,99102.56
2022-12-29T22:00:31.844Z,99100.29
2022-12-29T22:05:54.391Z,99098.83
2022-12-29T22:11:16.643Z,99093.67
2022-12-29T22:16:20.194Z,99098.12
2022-12-29T22:21:23.889Z,99107.23
2022-12-29T22:26:27.508Z,99118.89
2022-12-29T22:31:33.102Z,99112.92
2022-12-29T22:36:36.579Z,99121.19
2022-12-29T22:41:40.197Z,99126.91
2022-12-29T22:46:43.836Z,99125.38
2022-12-29T22:51:47.333Z,99128.19
2022-12-29T22:56:51.155Z,99132.27
2022-12-29T23:01:54.731Z,99134.92
2022-12-29T23:06:58.493Z,99137.52
2022-12-29T23:12:02.135Z,99140.36
2022-12-29T23:17:05.644Z,99149.94
2022-12-29T23:22:09.355Z,99152.81
2022-12-29T23:27:12.860Z,99156.27
2022-12-29T23:32:16.480Z,99157.13
2022-12-29T23:37:19.889Z,99150.71
2022-12-29T23:42:23.407Z,99149.73
2022-12-29T23:47:26.921Z,99150.80
2022-12-29T23:52:30.343Z,99151.78
2022-12-29T23:57:33.953Z,99158.14
